Laguna (440) Station Data

Red Flag Warning: No
Fire Weather Zone: 258
SDGE Region: Mountain Empire
Lat/Lon: 32.845/-116.472

Observations

Time Wind Speed/Gust Temp(F) RH Fuel Moist Fuel Temp(F) Dewpt(F) Tmax(F) Tmin(F) Accum Precip 10-min Precip SL Press(mb)
4/26 2:40am 51 2 G 3 39° 72% - - 31° 42.8° 38.9° - - -
4/26 2:30am 148 0 G 1 39° 72% - - 31° 42.8° 38.9° - - -
4/26 2:20am 75 2 G 4 40° 69% - - 31° 42.8° 39.1° - - -
4/26 2:10am 44 2 G 3 40° 71% - - 31° 42.8° 39.1° - - -
4/26 2:00am 47 1 G 2 40° 71% - - 31° 42.8° 39.1° - - -
4/26 1:50am 154 1 G 2 39° 73% - - 31° 42.8° 39.1° - - -
4/26 1:40am 174 0 G 2 41° 69% - - 31° 42.8° 39.9° - - -
4/26 1:30am 96 1 G 2 41° 69% - - 32° 42.8° 39.9° - - -
4/26 1:20am 45 2 G 3 40° 71% - - 32° 42.8° 39.9° - - -
4/26 1:10am 36 1 G 2 40° 72% - - 32° 42.8° 39.9° - - -
4/26 1:00am 105 1 G 3 41° 69% - - 32° 42.8° 40.5° - - -
4/26 12:50am 89 2 G 5 41° 71% - - 32° 42.8° 40.5° - - -
4/26 12:40am 64 2 G 3 41° 72% - - 33° 42.8° 40.5° - - -
4/26 12:30am 64 2 G 4 42° 70% - - 33° 42.8° 40.5° - - -
4/26 12:20am 69 2 G 3 41° 74% - - 33° 42.8° 40.5° - - -
4/26 12:10am 129 2 G 4 41° 72% - - 33° 42.8° 40.5° - - -
4/26 12:00am 54 2 G 5 40° 74% - - 33° 53.7° 39.3° - - -
4/25 11:50pm 133 1 G 2 41° 74% - - 33° 53.7° 39.3° - - -
4/25 11:40pm 79 2 G 3 41° 74% - - 33° 53.7° 39.3° - - -
4/25 11:30pm 60 2 G 4 40° 78% - - 33° 53.7° 39.3° - - -
4/25 11:20pm 149 3 G 5 40° 78% - - 34° 53.7° 39.3° - - -
4/25 11:10pm 66 2 G 4 40° 78% - - 34° 53.7° 39.5° - - -
4/25 11:00pm 79 2 G 3 40° 79% - - 34° 53.7° 39.5° - - -
4/25 10:50pm 123 2 G 4 40° 80% - - 35° 53.7° 39.6° - - -
4/25 10:40pm 119 1 G 4 41° 78% - - 35° 53.7° 40.6° - - -
4/25 10:30pm 118 2 G 3 41° 80% - - 35° 53.7° 40.6° - - -
4/25 10:20pm 191 1 G 2 42° 79% - - 36° 53.7° 40.6° - - -
4/25 10:10pm 106 2 G 5 42° 79% - - 36° 53.7° 41.2° - - -
4/25 10:00pm 94 3 G 6 43° 80% - - 37° 53.7° 41.2° - - -
4/25 9:50pm 149 2 G 4 42° 83% - - 37° 53.7° 41.2° - - -
4/25 9:40pm 135 2 G 3 41° 83% - - 37° 53.7° 41.2° - - -
4/25 9:30pm 66 1 G 3 42° 83% - - 37° 53.7° 41.3° - - -
4/25 9:20pm 341 1 G 3 43° 83% - - 38° 53.7° 41.3° - - -
4/25 9:10pm 58 2 G 5 43° 84% - - 38° 53.7° 41.3° - - -
4/25 9:00pm 28 1 G 5 43° 86% - - 39° 53.7° 41.3° - - -
4/25 8:50pm 69 2 G 4 42° 91% - - 39° 53.7° 41.3° - - -
4/25 8:40pm 88 1 G 3 43° 90% - - 40° 53.7° 41.3° - - -
4/25 8:30pm 154 1 G 3 44° 91% - - 41° 53.7° 41.3° - - -
4/25 8:20pm 151 1 G 3 44° 89% - - 41° 53.7° 41.3° - - -
4/25 8:10pm 49 1 G 3 45° 90% - - 42° 53.7° 41.3° - - -
4/25 8:00pm 302 2 G 5 45° 90% - - 43° 53.7° 41.3° - - -
4/25 7:50pm 349 3 G 4 46° 91% - - 43° 53.7° 41.3° - - -
4/25 7:40pm 346 3 G 5 46° 91% - - 44° 53.7° 41.3° - - -
4/25 7:30pm 344 3 G 7 46° 92% - - 44° 53.7° 41.3° - - -
4/25 7:20pm 326 5 G 9 47° 91% - - 44° 53.7° 41.3° - - -
4/25 7:10pm 328 5 G 8 47° 90% - - 44° 53.7° 41.3° - - -
4/25 7:00pm 322 3 G 7 47° 89% - - 44° 53.7° 41.3° - - -
4/25 6:50pm 321 5 G 9 47° 88% - - 44° 53.7° 41.3° - - -
4/25 6:40pm 320 5 G 10 48° 86% - - 44° 53.7° 41.3° - - -
4/25 6:30pm 326 5 G 8 48° 86% - - 44° 53.7° 41.3° - - -
4/25 6:20pm 317 5 G 9 48° 85% - - 44° 53.7° 41.3° - - -
4/25 6:10pm 323 6 G 11 48° 84% - - 43° 53.7° 41.3° - - -
4/25 6:00pm 322 7 G 13 48° 83% - - 43° 53.7° 41.3° - - -
4/25 5:50pm 320 4 G 8 49° 83% - - 44° 53.7° 41.3° - - -
4/25 5:40pm 314 5 G 11 49° 83% - - 44° 53.7° 41.3° - - -
4/25 5:30pm 309 6 G 13 49° 80% - - 43° 53.7° 41.3° - - -
4/25 5:20pm 296 6 G 11 50° 77% - - 43° 53.7° 41.3° - - -
4/25 5:10pm 287 5 G 12 50° 76% - - 43° 53.7° 41.3° - - -
4/25 5:00pm 304 7 G 14 50° 76% - - 43° 53.7° 41.3° - - -
4/25 4:50pm 317 6 G 12 50° 77% - - 43° 53.7° 41.3° - - -
4/25 4:40pm 309 8 G 18 50° 74% - - 43° 53.7° 41.3° - - -
4/25 4:30pm 301 5 G 15 50° 77% - - 43° 53.7° 41.3° - - -
4/25 4:20pm 303 7 G 14 50° 76% - - 43° 53.7° 41.3° - - -
4/25 4:10pm 304 7 G 11 50° 77% - - 43° 53.7° 41.3° - - -
4/25 4:00pm 314 6 G 10 50° 76% - - 43° 53.7° 41.3° - - -
4/25 3:50pm 312 6 G 13 51° 73% - - 42° 53.7° 41.3° - - -
4/25 3:40pm 301 6 G 11 52° 71% - - 42° 53.7° 41.3° - - -
4/25 3:30pm 297 5 G 10 51° 71% - - 42° 53.7° 41.3° - - -
4/25 3:20pm 293 6 G 11 50° 72% - - 42° 53.7° 41.3° - - -
4/25 3:10pm 260 6 G 16 51° 70% - - 41° 53.7° 41.3° - - -
4/25 3:00pm 309 4 G 8 51° 69% - - 41° 53.7° 41.3° - - -
4/25 2:50pm 298 4 G 11 51° 69% - - 41° 53.7° 41.3° - - -
4/25 2:40pm 308 7 G 15 51° 68% - - 41° 53.7° 41.3° - - -
4/25 2:30pm 328 6 G 13 52° 68% - - 42° 53.7° 41.3° - - -
4/25 2:20pm 327 5 G 12 52° 68% - - 42° 53.7° 41.3° - - -
4/25 2:10pm 300 4 G 12 52° 67% - - 41° 53.7° 41.3° - - -
4/25 2:00pm 290 6 G 15 51° 68% - - 41° 53.7° 41.3° - - -
4/25 1:50pm 310 8 G 15 51° 69% - - 41° 53.7° 41.3° - - -
4/25 1:40pm 278 5 G 13 52° 65% - - 41° 53.7° 41.3° - - -
4/25 1:30pm 268 6 G 13 52° 65% - - 41° 53.1° 41.3° - - -
4/25 1:20pm 291 6 G 12 52° 68% - - 41° 53.1° 41.3° - - -
4/25 1:10pm 276 4 G 12 52° 67% - - 41° 52.5° 41.3° - - -
4/25 1:00pm 306 4 G 11 51° 67% - - 41° 52.4° 41.3° - - -
4/25 12:50pm 293 6 G 12 51° 68% - - 41° 52.4° 41.3° - - -
4/25 12:40pm 300 5 G 8 51° 69% - - 41° 52.4° 41.3° - - -
4/25 12:30pm 271 7 G 13 50° 70% - - 40° 50.7° 41.3° - - -
4/25 12:20pm 252 5 G 11 49° 72% - - 40° 50.7° 41.3° - - -
4/25 12:10pm 273 5 G 17 50° 71% - - 41° 50.7° 41.3° - - -
4/25 12:00pm 294 5 G 9 49° 72% - - 41° 50.7° 41.3° - - -
4/25 11:50am 280 5 G 11 48° 73% - - 40° 50.1° 41.3° - - -
4/25 11:40am 287 6 G 14 48° 74% - - 40° 50.1° 41.3° - - -
4/25 11:30am 283 7 G 20 48° 74% - - 40° 50.1° 41.3° - - -
4/25 11:20am 300 7 G 14 48° 74% - - 40° 50.1° 41.3° - - -
4/25 11:10am 268 6 G 16 48° 73% - - 40° 50.1° 41.3° - - -
4/25 11:00am 260 8 G 20 48° 74% - - 40° 50.1° 41.3° - - -
4/25 10:50am 279 8 G 17 49° 71% - - 40° 50.1° 41.3° - - -
4/25 10:40am 294 7 G 16 49° 66% - - 38° 50.1° 41.3° - - -
4/25 10:30am 295 6 G 15 49° 68% - - 39° 50.1° 41.3° - - -
4/25 10:20am 266 7 G 13 48° 74% - - 40° 48.8° 41.3° - - -
4/25 10:10am 279 5 G 12 48° 74% - - 40° 48.8° 41.3° - - -
4/25 10:00am 296 4 G 12 48° 74% - - 41° 48.8° 41.3° - - -
4/25 9:50am 268 6 G 16 48° 76% - - 40° 48.4° 41.3° - - -
4/25 9:40am 282 7 G 14 47° 76% - - 40° 47.6° 41.3° - - -
4/25 9:30am 297 6 G 14 46° 78% - - 40° 47.6° 41.3° - - -
4/25 9:20am 327 9 G 16 46° 76% - - 39° 47.6° 41.3° - - -
4/25 9:10am 272 4 G 11 47° 77% - - 40° 47.6° 41.3° - - -
4/25 9:00am 295 5 G 13 47° 78% - - 40° 47.4° 41.3° - - -
4/25 8:50am 322 5 G 16 46° 80% - - 40° 46.1° 41.3° - - -
4/25 8:40am 322 6 G 13 45° 82% - - 40° 46.1° 41.3° - - -
4/25 8:30am 292 5 G 14 45° 82% - - 40° 46.1° 41.3° - - -
4/25 8:20am 322 5 G 12 44° 84% - - 40° 45.1° 41.3° - - -
4/25 8:10am 294 4 G 9 44° 86% - - 40° 45° 41.3° - - -
4/25 8:00am 324 4 G 8 44° 84% - - 40° 45° 41.3° - - -
4/25 7:50am 329 4 G 11 44° 85% - - 40° 45° 41.3° - - -
4/25 7:40am 294 3 G 9 44° 88% - - 40° 44.4° 41.3° - - -
4/25 7:30am 298 5 G 15 43° 93% - - 41° 43.4° 41.3° - - -
4/25 7:20am 300 5 G 11 42° 96% - - 41° 42.4° 41.3° - - -
4/25 7:10am 285 5 G 9 42° 96% - - 41° 42.3° 41.3° - - -
4/25 7:00am 289 3 G 5 42° 96% - - 41° 42.3° 41.3° - - -
4/25 6:50am 244 4 G 7 42° 96% - - 41° 42.3° 41.3° - - -
4/25 6:40am 47 2 G 5 42° 97% - - 41° 42.3° 41.3° - - -
4/25 6:30am 145 3 G 6 42° 97% - - 41° 42.3° 41.3° - - -
4/25 6:20am 188 3 G 9 42° 97% - - 41° 42.3° 41.3° - - -
4/25 6:10am 305 2 G 7 42° 97% - - 41° 42.3° 41.3° - - -
4/25 6:00am 204 3 G 7 42° 97% - - 41° 42.3° 41.3° - - -
4/25 5:50am 229 3 G 6 42° 98% - - 41° 42.3° 41.3° - - -
4/25 5:40am 247 4 G 8 42° 98% - - 41° 42.3° 41.3° - - -
4/25 5:30am 245 5 G 13 42° 98% - - 41° 42.3° 41.3° - - -
4/25 5:20am 239 5 G 13 42° 98% - - 41° 42.3° 41.3° - - -
4/25 5:10am 226 7 G 19 42° 98% - - 41° 42.3° 41.3° - - -
4/25 5:00am 233 6 G 14 42° 98% - - 41° 42.3° 41.3° - - -
4/25 4:50am 248 6 G 15 42° 98% - - 41° 42.3° 41.3° - - -
4/25 4:40am 235 5 G 11 42° 98% - - 41° 42.3° 41.3° - - -
4/25 4:30am 235 4 G 11 42° 98% - - 41° 42.3° 41.3° - - -
4/25 4:20am 241 4 G 9 42° 98% - - 41° 42.3° 41.3° - - -
4/25 4:10am 252 3 G 11 42° 98% - - 41° 42.3° 41.3° - - -
4/25 4:00am 240 4 G 13 42° 98% - - 41° 42.3° 41.3° - - -
4/25 3:50am 212 4 G 9 42° 98% - - 41° 42.3° 41.3° - - -
4/25 3:40am 215 3 G 8 42° 98% - - 41° 42.3° 41.3° - - -
4/25 3:30am 223 3 G 9 42° 98% - - 41° 42.3° 41.3° - - -
4/25 3:20am 217 3 G 9 42° 98% - - 41° 42.3° 41.3° - - -
4/25 3:10am 206 4 G 9 42° 98% - - 41° 42.3° 41.3° - - -
4/25 3:00am 245 3 G 8 42° 98% - - 41° 42.3° 41.3° - - -
4/25 2:50am 229 5 G 13 42° 98% - - 41° 42.3° 41.3° - - -
4/25 2:40am 247 2 G 7 42° 98% - - 41° 42.3° 41.3° - - -
4/25 2:30am 241 2 G 8 42° 98% - - 41° 42.3° 41.3° - - -
4/25 2:20am 208 4 G 9 42° 98% - - 41° 42.3° 41.3° - - -
4/25 2:10am 212 4 G 9 42° 98% - - 41° 42.3° 41.3° - - -
4/25 2:00am 196 6 G 12 42° 98% - - 41° 42.3° 41.3° - - -
4/25 1:50am 197 6 G 10 42° 98% - - 41° 42.3° 41.3° - - -
4/25 1:40am 206 3 G 7 42° 97% - - 41° 42.3° 41.3° - - -
4/25 1:30am 207 4 G 10 42° 97% - - 41° 42.3° 41.3° - - -
4/25 1:20am 185 3 G 6 42° 97% - - 41° 42.3° 41.3° - - -
4/25 1:10am 190 2 G 6 42° 97% - - 41° 42.3° 41.3° - - -
4/25 1:00am 173 4 G 7 42° 97% - - 41° 42.1° 41.3° - - -
4/25 12:50am 163 2 G 6 42° 97% - - 41° 41.8° 41.3° - - -
4/25 12:40am 212 3 G 6 41° 97% - - 41° 41.7° 41.3° - - -
4/25 12:30am 166 4 G 9 41° 97% - - 41° 41.7° 41.3° - - -
4/25 12:20am 171 6 G 13 41° 97% - - 41° 41.7° 41.3° - - -
4/25 12:10am 182 6 G 13 42° 97% - - 41° 41.7° 41.4° - - -
4/25 12:00am 190 5 G 11 41° 96% - - 40° 60.9° 38.6° - - -
4/24 11:50pm 239 3 G 8 41° 94% - - 40° 60.9° 38.6° - - -
4/24 11:40pm 201 5 G 10 42° 85% - - 38° 60.9° 38.6° - - -
4/24 11:30pm 195 3 G 6 42° 76% - - 35° 60.9° 38.6° - - -
4/24 11:20pm 143 2 G 7 43° 71% - - 34° 60.9° 38.6° - - -
4/24 11:10pm 151 3 G 5 43° 69% - - 33° 60.9° 38.6° - - -
4/24 11:00pm 146 3 G 7 43° 67% - - 33° 60.9° 38.6° - - -
4/24 10:50pm 135 4 G 6 43° 66% - - 32° 60.9° 38.6° - - -
4/24 10:40pm 142 4 G 8 43° 66% - - 32° 60.9° 38.6° - - -
4/24 10:30pm 136 3 G 6 41° 69% - - 32° 60.9° 38.6° - - -
4/24 10:20pm 137 1 G 4 39° 74% - - 31° 60.9° 38.6° - - -
4/24 10:10pm 162 1 G 2 39° 73% - - 31° 60.9° 38.6° - - -
4/24 10:00pm 113 1 G 4 39° 75% - - 32° 60.9° 38.6° - - -
4/24 9:50pm 178 1 G 4 39° 75% - - 32° 60.9° 38.7° - - -
4/24 9:40pm 127 1 G 3 40° 73% - - 32° 60.9° 39.6° - - -
4/24 9:30pm 180 1 G 2 41° 72% - - 33° 60.9° 40.2° - - -
4/24 9:20pm 124 2 G 3 41° 72% - - 33° 60.9° 41.1° - - -
4/24 9:10pm 5 1 G 3 43° 68% - - 33° 60.9° 41.8° - - -
4/24 9:00pm 80 1 G 4 44° 68% - - 34° 60.9° 42.3° - - -
4/24 8:50pm 359 1 G 2 45° 66% - - 34° 60.9° 42.3° - - -
4/24 8:40pm 338 2 G 4 46° 66% - - 35° 60.9° 42.3° - - -
4/24 8:30pm 325 3 G 6 46° 62% - - 34° 60.9° 42.3° - - -
4/24 8:20pm 308 3 G 6 47° 59% - - 33° 60.9° 42.3° - - -
4/24 8:10pm 322 3 G 5 48° 57% - - 33° 60.9° 42.3° - - -
4/24 8:00pm 338 3 G 5 47° 55% - - 32° 60.9° 42.3° - - -
4/24 7:50pm 333 3 G 5 48° 54% - - 32° 60.9° 42.3° - - -
4/24 7:40pm 351 3 G 5 49° 52% - - 32° 60.9° 42.3° - - -
4/24 7:30pm 336 1 G 4 49° 51% - - 32° 60.9° 42.3° - - -
4/24 7:20pm 313 4 G 7 49° 50% - - 32° 60.9° 42.3° - - -
4/24 7:10pm 306 3 G 8 50° 50% - - 32° 60.9° 42.3° - - -
4/24 7:00pm 306 3 G 9 51° 50% - - 32° 60.9° 42.3° - - -
4/24 6:50pm 315 5 G 10 51° 50% - - 33° 60.9° 42.3° - - -
4/24 6:40pm 314 4 G 9 51° 51% - - 33° 60.9° 42.3° - - -
4/24 6:30pm 310 5 G 12 51° 50% - - 33° 60.9° 42.3° - - -
4/24 6:20pm 308 5 G 11 52° 52% - - 35° 60.9° 42.3° - - -
4/24 6:10pm 311 6 G 14 52° 52% - - 35° 60.9° 42.3° - - -
4/24 6:00pm 325 7 G 13 53° 54% - - 37° 60.9° 42.3° - - -